Saturday, July 21, 2018, 3:20 AM EDT
Back to Local

KBWI, Baltimore-washington International

Location: Glen Burnie, MD, United States Lat: 39.167
Local Time: 3:20 AM EDT ( 7:20 GMT) Lon: -76.683
Time Zone: US/Eastern Elev: 147 ft

Show me the last for .
Show Decoded

2018-07-21 02:54 METAR KBWI 210654Z 10006KT 10SM FEW060 BKN170 BKN220 22/18 A3002 RMK AO2 SLP165
                 T02170178 =
2018-07-21 01:54 METAR KBWI 210554Z 09005KT 10SM FEW060 SCT190 BKN220 BKN250 22/18 A3004 RMK AO2
                 SLP171 T02170178 10267 20217 58002 =
2018-07-21 00:54 METAR KBWI 210454Z 13004KT 10SM FEW065 BKN220 BKN250 23/17 A3005 RMK AO2 SLP173
                 T02280172 403000172 =
2018-07-20 23:54 METAR KBWI 210354Z 14005KT 10SM SCT065 BKN100 BKN250 23/17 A3005 RMK AO2 SLP174
                 T02330172 =
2018-07-20 22:54 METAR KBWI 210254Z 13010G16KT 10SM SCT036 BKN060 BKN100 BKN250 24/17 A3004 RMK
                 AO2 SLP172 T02390172 50001 =
2018-07-20 21:54 METAR KBWI 210154Z 11010KT 10SM BKN036 BKN055 BKN100 25/18 A3005 RMK AO2 SLP174
                 T02500178 =
2018-07-20 20:54 METAR KBWI 210054Z 11015KT 10SM SCT046 BKN060 BKN110 BKN180 26/17 A3004 RMK AO2
                 SLP171 T02560172 =
2018-07-20 19:54 METAR KBWI 202354Z 11010KT 10SM SCT060 BKN110 BKN180 BKN250 27/17 A3004 RMK AO2
                 SLP171 T02670172 10300 20267 55003 =
2018-07-20 18:54 METAR KBWI 202254Z 13006KT 10SM SCT060 BKN110 BKN180 BKN250 28/14 A3003 RMK AO2
                 SLP167 T02780139 =
2018-07-20 17:54 METAR KBWI 202154Z 12006KT 10SM SCT060 SCT110 BKN180 BKN250 28/14 A3003 RMK AO2
                 SLP169 T02830144 =
2018-07-20 16:54 METAR KBWI 202054Z 15008KT 10SM FEW065 SCT110 BKN180 BKN250 29/13 A3005 RMK AO2
                 SLP174 T02890133 56017 =
2018-07-20 15:54 METAR KBWI 201954Z VRB05KT 10SM FEW060 SCT110 SCT180 BKN250 29/13 A3006 RMK AO2
                 SLP178 T02940128 =
2018-07-20 14:54 METAR KBWI 201854Z 12010G15KT 10SM FEW060 SCT110 SCT180 BKN250 30/13 A3008 RMK
                 AO2 SLP186 T03000128 =
2018-07-20 13:54 METAR KBWI 201754Z VRB04KT 10SM SCT060 SCT110 BKN180 BKN250 29/14 A3010 RMK AO2
                 SLP191 T02890139 10289 20228 58009 =
2018-07-20 12:54 METAR KBWI 201654Z 12009KT 10SM SCT050 SCT110 SCT180 BKN250 29/14 A3011 RMK AO2
                 SLP195 T02890139 =
2018-07-20 11:54 METAR KBWI 201554Z 15006KT 10SM SCT042TCU SCT065 SCT180 BKN250 27/17 A3012 RMK
                 AO2 SLP199 TCU N T02720167 =
2018-07-20 10:54 METAR KBWI 201454Z 14005KT 10SM SCT034TCU SCT110 SCT180 BKN250 27/16 A3013 RMK
                 AO2 SLP201 TCU N-SW T02720161 51001 =
2018-07-20 09:54 METAR KBWI 201354Z 14005KT 10SM SCT029TCU SCT180 BKN250 26/18 A3013 RMK AO2
                 SLP200 TCU NE-SE T02610178 =
2018-07-20 08:54 METAR KBWI 201254Z 00000KT 10SM FEW060 FEW180 BKN250 25/18 A3013 RMK AO2 SLP202
                 T02500183 =
2018-07-20 07:54 METAR KBWI 201154Z 00000KT 10SM FEW180 SCT250 23/19 A3013 RMK AO2 SLP200
                 T02280189 10228 20172 53009 =
2018-07-20 06:54 METAR KBWI 201054Z 00000KT 10SM R10/4000VP6000FT FEW070 SCT160 BKN250 19/18
                 A3012 RMK AO2 SLP197 T01940178 =
2018-07-20 05:54 METAR KBWI 200954Z 00000KT 10SM FEW160 SCT250 18/17 A3011 RMK AO2 SLP194
                 T01780167 =
2018-07-20 04:54 METAR KBWI 200854Z 00000KT 10SM FEW250 18/17 A3010 RMK AO2 SLP191 T01830167
                 52000 =
2018-07-20 03:54 METAR KBWI 200754Z 00000KT 10SM SCT250 18/17 A3010 RMK AO2 SLP191 T01830167 =

Support USWX by starting your Amazon purchase here.